Terminal Aerodrome Forecast
Issued by NWS Twin Cities, MN

Home | Current Version | Previous Version | Graphics & Text | Print | Product List | Glossary On
Versions: 1 2 3 4 5 6 7 8 9 10 11 12 13 14 15
636
FTUS43 KMPX 071726
TAFSTC
TAF
KSTC 071726Z 0718/0818 27020G28KT P6SM -SN SCT015 BKN025 OVC040
     FM080200 29018G25KT 4SM -SN BR OVC015
     FM081500 32016G24KT 4SM -SN BR OVC020=

USA.gov is the U.S. government's official web portal to all federal, state and local government web resources and services.